sensor_id;sensor_type;location;lat;lon;timestamp;pressure;altitude;pressure_sealevel;temperature;humidity
20368;BME280;10343;52.402;9.796;2022-11-23T00:01:29;99367.19;;;9.57;64.24
20368;BME280;10343;52.402;9.796;2022-11-23T00:04:01;99364.72;;;9.30;64.82
20368;BME280;10343;52.402;9.796;2022-11-23T00:06:29;99361.47;;;9.23;65.37
20368;BME280;10343;52.402;9.796;2022-11-23T00:08:57;99363.69;;;9.10;65.71
20368;BME280;10343;52.402;9.796;2022-11-23T00:11:26;99364.13;;;8.99;66.45
20368;BME280;10343;52.402;9.796;2022-11-23T00:13:54;99358.72;;;9.03;66.84
20368;BME280;10343;52.402;9.796;2022-11-23T00:16:25;99357.03;;;9.00;66.41
20368;BME280;10343;52.402;9.796;2022-11-23T00:18:54;99356.53;;;8.90;66.85
20368;BME280;10343;52.402;9.796;2022-11-23T00:21:23;99360.09;;;8.89;66.89
20368;BME280;10343;52.402;9.796;2022-11-23T00:23:52;99365.38;;;9.13;66.42
20368;BME280;10343;52.402;9.796;2022-11-23T00:26:19;99365.28;;;9.16;66.23
20368;BME280;10343;52.402;9.796;2022-11-23T00:28:47;99368.00;;;9.13;66.91
20368;BME280;10343;52.402;9.796;2022-11-23T00:31:16;99370.66;;;9.13;66.85
20368;BME280;10343;52.402;9.796;2022-11-23T00:33:49;99361.94;;;9.11;66.84
20368;BME280;10343;52.402;9.796;2022-11-23T00:36:19;99365.72;;;9.04;66.94
20368;BME280;10343;52.402;9.796;2022-11-23T00:38:47;99357.13;;;8.98;66.94
20368;BME280;10343;52.402;9.796;2022-11-23T00:41:18;99357.22;;;8.95;67.60
20368;BME280;10343;52.402;9.796;2022-11-23T00:43:46;99359.97;;;8.92;67.64
20368;BME280;10343;52.402;9.796;2022-11-23T00:46:16;99359.69;;;8.76;68.09
20368;BME280;10343;52.402;9.796;2022-11-23T00:48:46;99349.75;;;9.07;67.65
20368;BME280;10343;52.402;9.796;2022-11-23T00:51:17;99362.78;;;9.11;67.55
20368;BME280;10343;52.402;9.796;2022-11-23T00:53:46;99363.31;;;8.97;67.44
20368;BME280;10343;52.402;9.796;2022-11-23T00:56:14;99362.97;;;9.07;67.44
20368;BME280;10343;52.402;9.796;2022-11-23T00:58:42;99364.09;;;8.76;68.59
20368;BME280;10343;52.402;9.796;2022-11-23T01:01:14;99366.97;;;8.93;67.25
20368;BME280;10343;52.402;9.796;2022-11-23T01:03:45;99363.81;;;9.07;66.85
20368;BME280;10343;52.402;9.796;2022-11-23T01:06:17;99363.09;;;9.04;66.62
20368;BME280;10343;52.402;9.796;2022-11-23T01:08:47;99362.97;;;9.07;66.88
20368;BME280;10343;52.402;9.796;2022-11-23T01:11:16;99366.88;;;8.96;67.21
20368;BME280;10343;52.402;9.796;2022-11-23T01:13:45;99353.09;;;9.12;67.19
20368;BME280;10343;52.402;9.796;2022-11-23T01:16:14;99361.88;;;8.89;67.45
20368;BME280;10343;52.402;9.796;2022-11-23T01:18:51;99363.03;;;9.05;66.85
20368;BME280;10343;52.402;9.796;2022-11-23T01:21:23;99367.91;;;8.92;67.06
20368;BME280;10343;52.402;9.796;2022-11-23T01:23:52;99366.13;;;8.93;67.96
20368;BME280;10343;52.402;9.796;2022-11-23T01:26:20;99364.47;;;8.90;67.84
20368;BME280;10343;52.402;9.796;2022-11-23T01:28:48;99370.44;;;9.19;67.58
20368;BME280;10343;52.402;9.796;2022-11-23T01:31:18;99360.97;;;9.13;67.45
20368;BME280;10343;52.402;9.796;2022-11-23T01:33:49;99361.75;;;9.15;67.87
20368;BME280;10343;52.402;9.796;2022-11-23T01:36:20;99369.53;;;9.20;67.52
20368;BME280;10343;52.402;9.796;2022-11-23T01:38:51;99368.13;;;9.10;67.76
20368;BME280;10343;52.402;9.796;2022-11-23T01:41:22;99369.34;;;9.25;67.21
20368;BME280;10343;52.402;9.796;2022-11-23T01:43:51;99364.66;;;9.31;66.71
20368;BME280;10343;52.402;9.796;2022-11-23T01:46:19;99368.19;;;9.08;68.01
20368;BME280;10343;52.402;9.796;2022-11-23T01:48:50;99367.84;;;9.17;67.94
20368;BME280;10343;52.402;9.796;2022-11-23T01:51:22;99371.91;;;9.26;67.77
20368;BME280;10343;52.402;9.796;2022-11-23T01:53:57;99369.69;;;9.38;66.99
20368;BME280;10343;52.402;9.796;2022-11-23T01:56:29;99375.34;;;9.28;67.59
20368;BME280;10343;52.402;9.796;2022-11-23T01:59:02;99367.41;;;9.28;67.58
20368;BME280;10343;52.402;9.796;2022-11-23T02:01:31;99382.00;;;9.39;67.38
20368;BME280;10343;52.402;9.796;2022-11-23T02:04:00;99372.44;;;9.12;67.59
20368;BME280;10343;52.402;9.796;2022-11-23T02:06:30;99368.06;;;9.11;68.35
20368;BME280;10343;52.402;9.796;2022-11-23T02:09:02;99379.28;;;9.18;68.11
20368;BME280;10343;52.402;9.796;2022-11-23T02:11:30;99376.28;;;9.27;68.09
20368;BME280;10343;52.402;9.796;2022-11-23T02:13:58;99379.72;;;9.29;67.38
20368;BME280;10343;52.402;9.796;2022-11-23T02:16:29;99385.06;;;9.28;68.12
20368;BME280;10343;52.402;9.796;2022-11-23T02:18:57;99375.72;;;9.19;67.87
20368;BME280;10343;52.402;9.796;2022-11-23T02:21:27;99377.91;;;9.08;68.55
20368;BME280;10343;52.402;9.796;2022-11-23T02:23:58;99377.28;;;9.01;68.78
20368;BME280;10343;52.402;9.796;2022-11-23T02:26:33;99376.06;;;9.10;68.36
20368;BME280;10343;52.402;9.796;2022-11-23T02:29:06;99383.81;;;9.14;68.04
20368;BME280;10343;52.402;9.796;2022-11-23T02:31:36;99381.78;;;9.21;68.21
20368;BME280;10343;52.402;9.796;2022-11-23T02:34:04;99386.16;;;9.22;67.70
20368;BME280;10343;52.402;9.796;2022-11-23T02:36:37;99385.13;;;9.26;67.77
20368;BME280;10343;52.402;9.796;2022-11-23T02:39:10;99382.38;;;9.29;67.46
20368;BME280;10343;52.402;9.796;2022-11-23T02:41:43;99383.09;;;9.11;68.27
20368;BME280;10343;52.402;9.796;2022-11-23T02:44:21;99373.59;;;9.29;67.76
20368;BME280;10343;52.402;9.796;2022-11-23T02:46:52;99377.44;;;9.20;68.28
20368;BME280;10343;52.402;9.796;2022-11-23T02:49:20;99372.59;;;9.31;67.91
20368;BME280;10343;52.402;9.796;2022-11-23T02:51:50;99371.72;;;9.31;67.83
20368;BME280;10343;52.402;9.796;2022-11-23T02:54:18;99374.50;;;9.28;68.14
20368;BME280;10343;52.402;9.796;2022-11-23T02:56:47;99380.69;;;9.27;68.30
20368;BME280;10343;52.402;9.796;2022-11-23T02:59:17;99373.06;;;9.19;68.81
20368;BME280;10343;52.402;9.796;2022-11-23T03:01:45;99373.75;;;9.24;68.13
20368;BME280;10343;52.402;9.796;2022-11-23T03:04:13;99383.06;;;9.34;67.91
20368;BME280;10343;52.402;9.796;2022-11-23T03:06:41;99375.13;;;9.34;68.35
20368;BME280;10343;52.402;9.796;2022-11-23T03:09:09;99375.88;;;9.60;67.62
20368;BME280;10343;52.402;9.796;2022-11-23T03:11:37;99373.50;;;9.30;68.02
20368;BME280;10343;52.402;9.796;2022-11-23T03:14:06;99380.53;;;9.31;68.56
20368;BME280;10343;52.402;9.796;2022-11-23T03:16:42;99369.56;;;9.41;68.49
20368;BME280;10343;52.402;9.796;2022-11-23T03:19:11;99374.50;;;9.28;68.55
20368;BME280;10343;52.402;9.796;2022-11-23T03:21:39;99375.25;;;9.31;69.25
20368;BME280;10343;52.402;9.796;2022-11-23T03:24:07;99376.66;;;9.62;67.62
20368;BME280;10343;52.402;9.796;2022-11-23T03:26:36;99370.81;;;9.54;68.41
20368;BME280;10343;52.402;9.796;2022-11-23T03:29:10;99372.75;;;9.73;67.01
20368;BME280;10343;52.402;9.796;2022-11-23T03:31:39;99374.84;;;9.64;67.24
20368;BME280;10343;52.402;9.796;2022-11-23T03:34:11;99371.19;;;9.45;68.15
20368;BME280;10343;52.402;9.796;2022-11-23T03:36:39;99380.91;;;9.66;67.23
20368;BME280;10343;52.402;9.796;2022-11-23T03:39:07;99380.25;;;9.83;66.43
20368;BME280;10343;52.402;9.796;2022-11-23T03:42:13;99384.03;;;9.54;67.32
20368;BME280;10343;52.402;9.796;2022-11-23T03:44:42;99382.50;;;9.48;67.51
20368;BME280;10343;52.402;9.796;2022-11-23T03:47:10;99379.66;;;9.53;67.29
20368;BME280;10343;52.402;9.796;2022-11-23T03:49:38;99382.94;;;9.38;68.01
20368;BME280;10343;52.402;9.796;2022-11-23T03:52:08;99376.72;;;9.61;67.66
20368;BME280;10343;52.402;9.796;2022-11-23T03:54:35;99380.00;;;9.67;67.13
20368;BME280;10343;52.402;9.796;2022-11-23T03:57:03;99382.44;;;9.50;68.04
20368;BME280;10343;52.402;9.796;2022-11-23T03:59:31;99374.63;;;9.47;68.44
20368;BME280;10343;52.402;9.796;2022-11-23T04:02:01;99371.81;;;9.51;68.50
20368;BME280;10343;52.402;9.796;2022-11-23T04:04:33;99376.72;;;9.39;68.38
20368;BME280;10343;52.402;9.796;2022-11-23T04:07:07;99380.28;;;9.38;68.55
20368;BME280;10343;52.402;9.796;2022-11-23T04:09:39;99374.75;;;9.22;69.76
20368;BME280;10343;52.402;9.796;2022-11-23T04:12:24;99370.56;;;9.16;69.55
20368;BME280;10343;52.402;9.796;2022-11-23T04:14:52;99381.34;;;9.10;70.14
20368;BME280;10343;52.402;9.796;2022-11-23T04:17:22;99383.75;;;8.92;70.70
20368;BME280;10343;52.402;9.796;2022-11-23T04:19:50;99379.09;;;8.99;70.74
20368;BME280;10343;52.402;9.796;2022-11-23T04:22:17;99385.94;;;8.81;71.21
20368;BME280;10343;52.402;9.796;2022-11-23T04:24:46;99379.53;;;9.12;69.93
20368;BME280;10343;52.402;9.796;2022-11-23T04:27:14;99381.81;;;8.97;70.06
20368;BME280;10343;52.402;9.796;2022-11-23T04:29:42;99381.75;;;8.99;70.70
20368;BME280;10343;52.402;9.796;2022-11-23T04:32:11;99380.44;;;8.87;71.75
20368;BME280;10343;52.402;9.796;2022-11-23T04:34:40;99376.66;;;8.94;71.57
20368;BME280;10343;52.402;9.796;2022-11-23T04:37:11;99381.94;;;8.94;71.15
20368;BME280;10343;52.402;9.796;2022-11-23T04:39:41;99389.16;;;8.89;71.34
20368;BME280;10343;52.402;9.796;2022-11-23T04:42:32;99389.03;;;8.92;71.23
20368;BME280;10343;52.402;9.796;2022-11-23T04:45:00;99384.28;;;8.78;71.70
20368;BME280;10343;52.402;9.796;2022-11-23T04:47:29;99380.13;;;8.95;71.04
20368;BME280;10343;52.402;9.796;2022-11-23T04:50:03;99384.56;;;8.71;71.41
20368;BME280;10343;52.402;9.796;2022-11-23T04:52:31;99394.28;;;8.45;72.45
20368;BME280;10343;52.402;9.796;2022-11-23T04:54:59;99394.72;;;8.81;71.69
20368;BME280;10343;52.402;9.796;2022-11-23T04:57:30;99404.19;;;8.63;71.77
20368;BME280;10343;52.402;9.796;2022-11-23T04:59:58;99400.41;;;8.71;71.84
20368;BME280;10343;52.402;9.796;2022-11-23T05:02:27;99404.81;;;8.70;71.60
20368;BME280;10343;52.402;9.796;2022-11-23T05:05:22;99411.19;;;8.64;71.64
20368;BME280;10343;52.402;9.796;2022-11-23T05:07:50;99410.34;;;8.64;71.87
20368;BME280;10343;52.402;9.796;2022-11-23T05:10:21;99410.47;;;8.59;72.25
20368;BME280;10343;52.402;9.796;2022-11-23T05:12:52;99410.53;;;8.83;71.13
20368;BME280;10343;52.402;9.796;2022-11-23T05:15:20;99412.16;;;8.87;71.10
20368;BME280;10343;52.402;9.796;2022-11-23T05:17:48;99406.44;;;8.74;71.93
20368;BME280;10343;52.402;9.796;2022-11-23T05:20:25;99409.59;;;8.84;71.58
20368;BME280;10343;52.402;9.796;2022-11-23T05:22:53;99410.94;;;8.72;71.91
20368;BME280;10343;52.402;9.796;2022-11-23T05:25:23;99414.94;;;8.82;71.11
20368;BME280;10343;52.402;9.796;2022-11-23T05:28:00;99415.72;;;8.86;71.29
20368;BME280;10343;52.402;9.796;2022-11-23T05:30:49;99415.09;;;8.54;72.50
20368;BME280;10343;52.402;9.796;2022-11-23T05:33:17;99416.09;;;8.75;71.82
20368;BME280;10343;52.402;9.796;2022-11-23T05:35:47;99412.03;;;8.65;72.15
20368;BME280;10343;52.402;9.796;2022-11-23T05:38:17;99413.03;;;8.62;72.25
20368;BME280;10343;52.402;9.796;2022-11-23T05:40:45;99417.66;;;8.56;72.79
20368;BME280;10343;52.402;9.796;2022-11-23T05:43:14;99417.97;;;8.72;72.52
20368;BME280;10343;52.402;9.796;2022-11-23T05:45:41;99417.38;;;8.63;71.77
20368;BME280;10343;52.402;9.796;2022-11-23T05:48:10;99425.75;;;8.51;72.57
20368;BME280;10343;52.402;9.796;2022-11-23T05:50:52;99429.84;;;8.60;72.20
20368;BME280;10343;52.402;9.796;2022-11-23T05:53:27;99421.66;;;8.67;71.84
20368;BME280;10343;52.402;9.796;2022-11-23T05:56:04;99416.91;;;8.52;73.20
20368;BME280;10343;52.402;9.796;2022-11-23T05:58:38;99427.00;;;8.39;73.04
20368;BME280;10343;52.402;9.796;2022-11-23T06:01:07;99418.09;;;8.69;72.13
20368;BME280;10343;52.402;9.796;2022-11-23T06:03:36;99420.72;;;8.69;72.49
20368;BME280;10343;52.402;9.796;2022-11-23T06:06:06;99421.13;;;8.83;72.26
20368;BME280;10343;52.402;9.796;2022-11-23T06:08:39;99422.72;;;8.87;71.82
20368;BME280;10343;52.402;9.796;2022-11-23T06:11:13;99419.97;;;8.90;71.73
20368;BME280;10343;52.402;9.796;2022-11-23T06:13:42;99407.97;;;12.48;68.88
20368;BME280;10343;52.402;9.796;2022-11-23T06:16:14;99366.19;;;26.76;96.80
20368;BME280;10343;52.402;9.796;2022-11-23T06:18:55;99399.75;;;15.90;52.45
20368;BME280;10343;52.402;9.796;2022-11-23T06:21:24;99415.31;;;15.13;51.35
20368;BME280;10343;52.402;9.796;2022-11-23T06:23:55;99413.53;;;14.68;52.29
20368;BME280;10343;52.402;9.796;2022-11-23T06:26:27;99411.28;;;15.05;51.19
20368;BME280;10343;52.402;9.796;2022-11-23T06:28:56;99416.25;;;14.97;50.46
20368;BME280;10343;52.402;9.796;2022-11-23T06:31:24;99413.22;;;15.03;50.55
20368;BME280;10343;52.402;9.796;2022-11-23T06:33:52;99407.84;;;14.89;50.20
20368;BME280;10343;52.402;9.796;2022-11-23T06:36:20;99423.22;;;14.24;51.90
20368;BME280;10343;52.402;9.796;2022-11-23T06:38:52;99422.53;;;14.21;52.26
20368;BME280;10343;52.402;9.796;2022-11-23T06:41:23;99424.78;;;14.43;51.95
20368;BME280;10343;52.402;9.796;2022-11-23T06:43:58;99431.84;;;14.14;52.74
20368;BME280;10343;52.402;9.796;2022-11-23T06:46:36;99431.84;;;13.98;52.31
20368;BME280;10343;52.402;9.796;2022-11-23T06:49:04;99435.81;;;13.74;53.48
20368;BME280;10343;52.402;9.796;2022-11-23T06:51:32;99446.28;;;13.46;54.25
20368;BME280;10343;52.402;9.796;2022-11-23T06:54:02;99442.88;;;13.59;53.98
20368;BME280;10343;52.402;9.796;2022-11-23T06:56:30;99453.41;;;13.12;54.75
20368;BME280;10343;52.402;9.796;2022-11-23T06:58:58;99453.50;;;13.44;53.92
20368;BME280;10343;52.402;9.796;2022-11-23T07:01:26;99447.16;;;13.46;54.24
20368;BME280;10343;52.402;9.796;2022-11-23T07:04:00;99452.56;;;13.45;54.14
20368;BME280;10343;52.402;9.796;2022-11-23T07:06:33;99451.97;;;13.71;53.11
20368;BME280;10343;52.402;9.796;2022-11-23T07:09:09;99446.84;;;13.68;53.43
20368;BME280;10343;52.402;9.796;2022-11-23T07:11:46;99459.69;;;13.11;54.83
20368;BME280;10343;52.402;9.796;2022-11-23T07:14:15;99457.19;;;13.07;54.87
20368;BME280;10343;52.402;9.796;2022-11-23T07:16:46;99461.06;;;13.35;54.40
20368;BME280;10343;52.402;9.796;2022-11-23T07:19:14;99473.53;;;10.34;62.99
20368;BME280;10343;52.402;9.796;2022-11-23T07:21:43;99469.44;;;9.81;66.10
20368;BME280;10343;52.402;9.796;2022-11-23T07:24:13;99470.16;;;9.63;67.79
20368;BME280;10343;52.402;9.796;2022-11-23T07:26:41;99476.94;;;9.92;67.30
20368;BME280;10343;52.402;9.796;2022-11-23T07:29:09;99475.00;;;9.97;67.34
20368;BME280;10343;52.402;9.796;2022-11-23T07:31:37;99475.34;;;10.10;67.27
20368;BME280;10343;52.402;9.796;2022-11-23T07:34:06;99482.47;;;10.08;67.20
20368;BME280;10343;52.402;9.796;2022-11-23T07:36:35;99476.56;;;10.24;66.12
20368;BME280;10343;52.402;9.796;2022-11-23T07:39:04;99476.50;;;10.25;65.67
20368;BME280;10343;52.402;9.796;2022-11-23T07:41:34;99477.66;;;10.62;65.39
20368;BME280;10343;52.402;9.796;2022-11-23T07:44:20;99483.03;;;10.81;63.88
20368;BME280;10343;52.402;9.796;2022-11-23T07:46:51;99482.22;;;10.59;64.48
20368;BME280;10343;52.402;9.796;2022-11-23T07:49:20;99477.22;;;10.92;63.91
20368;BME280;10343;52.402;9.796;2022-11-23T07:51:48;99490.31;;;11.36;62.39
20368;BME280;10343;52.402;9.796;2022-11-23T07:54:16;99486.25;;;11.67;61.34
20368;BME280;10343;52.402;9.796;2022-11-23T07:56:50;99494.06;;;11.32;61.94
20368;BME280;10343;52.402;9.796;2022-11-23T07:59:18;99497.72;;;11.09;62.97
20368;BME280;10343;52.402;9.796;2022-11-23T08:01:46;99502.28;;;11.05;62.85
20368;BME280;10343;52.402;9.796;2022-11-23T08:04:21;99497.28;;;10.99;63.05
20368;BME280;10343;52.402;9.796;2022-11-23T08:06:49;99500.31;;;11.11;62.97
20368;BME280;10343;52.402;9.796;2022-11-23T08:09:18;99504.50;;;11.35;61.50
20368;BME280;10343;52.402;9.796;2022-11-23T08:11:45;99500.94;;;11.55;61.33
20368;BME280;10343;52.402;9.796;2022-11-23T08:14:15;99494.91;;;11.90;59.90
20368;BME280;10343;52.402;9.796;2022-11-23T08:16:43;99498.00;;;11.81;60.34
20368;BME280;10343;52.402;9.796;2022-11-23T08:19:11;99494.50;;;11.99;59.27
20368;BME280;10343;52.402;9.796;2022-11-23T08:21:39;99503.56;;;11.95;59.49
20368;BME280;10343;52.402;9.796;2022-11-23T08:24:07;99501.38;;;12.03;59.51
20368;BME280;10343;52.402;9.796;2022-11-23T08:26:35;99499.53;;;12.05;59.17
20368;BME280;10343;52.402;9.796;2022-11-23T08:29:03;99501.72;;;12.15;58.78
20368;BME280;10343;52.402;9.796;2022-11-23T08:31:32;99502.97;;;12.07;58.73
20368;BME280;10343;52.402;9.796;2022-11-23T08:34:00;99501.09;;;12.10;59.43
20368;BME280;10343;52.402;9.796;2022-11-23T08:36:30;99495.03;;;12.25;58.68
20368;BME280;10343;52.402;9.796;2022-11-23T08:39:06;99503.91;;;12.43;58.33
20368;BME280;10343;52.402;9.796;2022-11-23T08:41:37;99496.97;;;12.21;58.38
20368;BME280;10343;52.402;9.796;2022-11-23T08:44:13;99502.22;;;12.23;58.54
20368;BME280;10343;52.402;9.796;2022-11-23T08:46:44;99500.50;;;12.22;58.98
20368;BME280;10343;52.402;9.796;2022-11-23T08:49:16;99498.78;;;12.21;58.88
20368;BME280;10343;52.402;9.796;2022-11-23T08:51:45;99498.09;;;11.98;59.60
20368;BME280;10343;52.402;9.796;2022-11-23T08:54:16;99500.94;;;12.13;59.61
20368;BME280;10343;52.402;9.796;2022-11-23T08:56:44;99500.91;;;12.32;59.25
20368;BME280;10343;52.402;9.796;2022-11-23T08:59:11;99504.25;;;12.18;59.38
20368;BME280;10343;52.402;9.796;2022-11-23T09:01:40;99501.38;;;12.22;59.59
20368;BME280;10343;52.402;9.796;2022-11-23T09:04:09;99501.06;;;12.29;59.21
20368;BME280;10343;52.402;9.796;2022-11-23T09:06:44;99508.56;;;12.38;59.15
20368;BME280;10343;52.402;9.796;2022-11-23T09:09:12;99498.19;;;12.33;59.25
20368;BME280;10343;52.402;9.796;2022-11-23T09:11:41;99515.28;;;12.28;59.13
20368;BME280;10343;52.402;9.796;2022-11-23T09:14:18;99512.31;;;12.16;59.13
20368;BME280;10343;52.402;9.796;2022-11-23T09:16:48;99509.44;;;12.56;58.38
20368;BME280;10343;52.402;9.796;2022-11-23T09:19:18;99505.72;;;12.78;57.66
20368;BME280;10343;52.402;9.796;2022-11-23T09:21:48;99512.19;;;12.54;58.08
20368;BME280;10343;52.402;9.796;2022-11-23T09:24:20;99513.69;;;12.78;57.82
20368;BME280;10343;52.402;9.796;2022-11-23T09:26:48;99512.91;;;12.58;58.10
20368;BME280;10343;52.402;9.796;2022-11-23T09:29:16;99512.41;;;12.32;59.15
20368;BME280;10343;52.402;9.796;2022-11-23T09:31:45;99523.31;;;12.45;58.64
20368;BME280;10343;52.402;9.796;2022-11-23T09:34:12;99512.75;;;12.61;58.28
20368;BME280;10343;52.402;9.796;2022-11-23T09:36:42;99505.72;;;12.78;57.59
20368;BME280;10343;52.402;9.796;2022-11-23T09:39:10;99509.22;;;13.13;56.46
20368;BME280;10343;52.402;9.796;2022-11-23T09:42:00;99518.13;;;13.12;56.47
20368;BME280;10343;52.402;9.796;2022-11-23T09:44:53;99523.25;;;12.99;56.66
20368;BME280;10343;52.402;9.796;2022-11-23T09:47:40;99514.94;;;13.56;55.58
20368;BME280;10343;52.402;9.796;2022-11-23T09:50:17;99510.56;;;13.71;54.75
20368;BME280;10343;52.402;9.796;2022-11-23T09:52:52;99515.50;;;13.46;54.73
20368;BME280;10343;52.402;9.796;2022-11-23T09:55:26;99516.69;;;13.73;54.74
20368;BME280;10343;52.402;9.796;2022-11-23T09:58:02;99517.13;;;13.82;54.06
20368;BME280;10343;52.402;9.796;2022-11-23T10:00:36;99519.66;;;13.67;54.55
20368;BME280;10343;52.402;9.796;2022-11-23T10:03:11;99515.13;;;13.69;54.21
20368;BME280;10343;52.402;9.796;2022-11-23T10:05:47;99520.88;;;13.62;54.52
20368;BME280;10343;52.402;9.796;2022-11-23T10:08:25;99516.25;;;14.13;53.34
20368;BME280;10343;52.402;9.796;2022-11-23T10:11:08;99519.06;;;14.42;52.84
20368;BME280;10343;52.402;9.796;2022-11-23T10:13:44;99521.00;;;14.54;52.28
20368;BME280;10343;52.402;9.796;2022-11-23T10:16:23;99519.56;;;14.49;51.99
20368;BME280;10343;52.402;9.796;2022-11-23T10:18:59;99519.28;;;14.69;51.22
20368;BME280;10343;52.402;9.796;2022-11-23T10:21:38;99520.25;;;14.99;50.35
20368;BME280;10343;52.402;9.796;2022-11-23T10:24:16;99510.03;;;14.91;51.01
20368;BME280;10343;52.402;9.796;2022-11-23T10:26:49;99510.31;;;15.01;50.24
20368;BME280;10343;52.402;9.796;2022-11-23T10:29:24;99524.19;;;15.94;48.97
20368;BME280;10343;52.402;9.796;2022-11-23T10:31:54;99512.00;;;15.90;48.07
20368;BME280;10343;52.402;9.796;2022-11-23T10:34:43;99511.25;;;16.83;46.42
20368;BME280;10343;52.402;9.796;2022-11-23T10:37:17;99505.75;;;18.37;43.06
20368;BME280;10343;52.402;9.796;2022-11-23T10:39:47;99501.75;;;18.43;41.79
20368;BME280;10343;52.402;9.796;2022-11-23T10:42:19;99520.53;;;17.04;44.98
20368;BME280;10343;52.402;9.796;2022-11-23T10:44:50;99516.00;;;16.52;46.07
20368;BME280;10343;52.402;9.796;2022-11-23T10:47:35;99533.16;;;15.35;48.60
20368;BME280;10343;52.402;9.796;2022-11-23T10:50:23;99525.72;;;15.40;48.91
20368;BME280;10343;52.402;9.796;2022-11-23T10:52:53;99530.47;;;15.21;49.63
20368;BME280;10343;52.402;9.796;2022-11-23T10:55:26;99532.38;;;15.04;50.50
20368;BME280;10343;52.402;9.796;2022-11-23T10:57:55;99535.94;;;15.34;49.52
20368;BME280;10343;52.402;9.796;2022-11-23T11:00:25;99525.59;;;14.99;50.32
20368;BME280;10343;52.402;9.796;2022-11-23T11:02:57;99529.31;;;15.10;50.63
20368;BME280;10343;52.402;9.796;2022-11-23T11:05:31;99527.16;;;14.87;51.12
20368;BME280;10343;52.402;9.796;2022-11-23T11:08:24;99539.91;;;14.82;51.14
20368;BME280;10343;52.402;9.796;2022-11-23T11:11:00;99530.09;;;14.20;52.30
20368;BME280;10343;52.402;9.796;2022-11-23T11:13:31;99537.19;;;14.51;51.83
20368;BME280;10343;52.402;9.796;2022-11-23T11:16:21;99528.81;;;14.27;52.30
20368;BME280;10343;52.402;9.796;2022-11-23T11:18:50;99531.91;;;13.87;53.54
20368;BME280;10343;52.402;9.796;2022-11-23T11:21:20;99529.91;;;13.91;53.81
20368;BME280;10343;52.402;9.796;2022-11-23T11:23:52;99523.16;;;14.01;53.83
20368;BME280;10343;52.402;9.796;2022-11-23T11:26:23;99518.66;;;14.18;53.78
20368;BME280;10343;52.402;9.796;2022-11-23T11:28:53;99518.25;;;14.72;52.66
20368;BME280;10343;52.402;9.796;2022-11-23T11:31:29;99522.66;;;15.32;50.89
20368;BME280;10343;52.402;9.796;2022-11-23T11:34:07;99519.44;;;15.41;50.32
20368;BME280;10343;52.402;9.796;2022-11-23T11:36:42;99507.00;;;15.55;50.11
20368;BME280;10343;52.402;9.796;2022-11-23T11:39:14;99502.66;;;15.54;50.14
20368;BME280;10343;52.402;9.796;2022-11-23T11:41:48;99507.66;;;15.01;50.96
20368;BME280;10343;52.402;9.796;2022-11-23T11:44:20;99508.69;;;14.84;51.61
20368;BME280;10343;52.402;9.796;2022-11-23T11:46:54;99511.41;;;15.13;51.48
20368;BME280;10343;52.402;9.796;2022-11-23T11:49:25;99515.31;;;15.21;50.97
20368;BME280;10343;52.402;9.796;2022-11-23T11:52:01;99507.00;;;15.55;50.17
20368;BME280;10343;52.402;9.796;2022-11-23T11:54:36;99493.75;;;17.17;46.40
20368;BME280;10343;52.402;9.796;2022-11-23T11:57:15;99491.31;;;18.51;43.20
20368;BME280;10343;52.402;9.796;2022-11-23T11:59:46;99491.19;;;19.58;40.64
20368;BME280;10343;52.402;9.796;2022-11-23T12:02:21;99497.56;;;17.77;43.36
20368;BME280;10343;52.402;9.796;2022-11-23T12:05:01;99491.28;;;17.53;44.27
20368;BME280;10343;52.402;9.796;2022-11-23T12:07:34;99487.63;;;17.41;44.04
20368;BME280;10343;52.402;9.796;2022-11-23T12:10:08;99473.69;;;20.41;39.69
20368;BME280;10343;52.402;9.796;2022-11-23T12:12:38;99455.97;;;23.97;32.98
20368;BME280;10343;52.402;9.796;2022-11-23T12:15:15;99458.91;;;25.20;30.37
20368;BME280;10343;52.402;9.796;2022-11-23T12:18:27;99454.59;;;23.46;31.66
20368;BME280;10343;52.402;9.796;2022-11-23T12:21:19;99465.03;;;20.59;36.36
20368;BME280;10343;52.402;9.796;2022-11-23T12:23:57;99470.69;;;18.87;39.24
20368;BME280;10343;52.402;9.796;2022-11-23T12:26:32;99478.03;;;17.75;42.34
20368;BME280;10343;52.402;9.796;2022-11-23T12:29:26;99466.66;;;18.22;41.45
20368;BME280;10343;52.402;9.796;2022-11-23T12:32:07;99462.31;;;19.03;40.73
20368;BME280;10343;52.402;9.796;2022-11-23T12:34:49;99456.03;;;21.02;37.63
20368;BME280;10343;52.402;9.796;2022-11-23T12:37:35;99456.31;;;22.11;35.02
20368;BME280;10343;52.402;9.796;2022-11-23T12:40:22;99456.91;;;21.43;35.71
20368;BME280;10343;52.402;9.796;2022-11-23T12:42:59;99456.91;;;20.05;37.34
20368;BME280;10343;52.402;9.796;2022-11-23T12:48:37;99459.38;;;19.97;37.43
20368;BME280;10343;52.402;9.796;2022-11-23T12:51:15;99468.19;;;19.76;38.09
20368;BME280;10343;52.402;9.796;2022-11-23T12:53:50;99455.03;;;20.49;36.84
20368;BME280;10343;52.402;9.796;2022-11-23T12:56:35;99445.63;;;20.23;37.45
20368;BME280;10343;52.402;9.796;2022-11-23T12:59:10;99445.03;;;21.46;35.73
20368;BME280;10343;52.402;9.796;2022-11-23T13:01:45;99452.97;;;21.16;35.74
20368;BME280;10343;52.402;9.796;2022-11-23T13:04:50;99450.41;;;22.37;33.87
20368;BME280;10343;52.402;9.796;2022-11-23T13:10:45;99454.97;;;20.07;37.13
20368;BME280;10343;52.402;9.796;2022-11-23T13:13:30;99456.03;;;20.16;37.20
20368;BME280;10343;52.402;9.796;2022-11-23T13:19:07;99459.84;;;17.68;41.63
20368;BME280;10343;52.402;9.796;2022-11-23T13:21:41;99459.84;;;16.77;43.34
20368;BME280;10343;52.402;9.796;2022-11-23T13:24:23;99462.97;;;15.48;45.55
20368;BME280;10343;52.402;9.796;2022-11-23T13:29:58;99465.63;;;15.04;46.31
20368;BME280;10343;52.402;9.796;2022-11-23T13:32:34;99455.66;;;14.77;46.82
20368;BME280;10343;52.402;9.796;2022-11-23T13:38:21;99456.75;;;15.33;46.57
20368;BME280;10343;52.402;9.796;2022-11-23T13:40:50;99445.06;;;15.91;45.06
20368;BME280;10343;52.402;9.796;2022-11-23T13:43:21;99446.31;;;16.40;43.99
20368;BME280;10343;52.402;9.796;2022-11-23T13:48:57;99421.69;;;16.35;43.27
20368;BME280;10343;52.402;9.796;2022-11-23T13:51:28;99429.38;;;16.27;43.63